Time;durP1;ratioP1;P1;durP2;ratioP2;P2;SDS_P1;SDS_P2;PMS_P1;PMS_P2;Temp;Humidity;BMP_temperature;BMP_pressure;BME280_temperature;BME280_humidity;BME280_pressure;Samples;Min_cycle;Max_cycle;Signal;HPM_P1;HPM_P2
2021/08/28 00:01:15;;;;;;;10.15;2.22;;;15.30;99.90;;;;;;4983175;28;20035;-67
2021/08/28 00:03:41;;;;;;;8.48;1.70;;;15.30;99.90;;;;;;4982200;28;20065;-67
2021/08/28 00:06:07;;;;;;;8.80;2.20;;;15.30;99.90;;;;;;5000410;28;20530;-66
2021/08/28 00:08:32;;;;;;;13.85;2.38;;;15.30;99.90;;;;;;4999691;28;20026;-66
2021/08/28 00:10:58;;;;;;;8.48;1.98;;;15.40;99.90;;;;;;4998422;28;20037;-67
2021/08/28 00:13:24;;;;;;;10.40;2.03;;;15.30;99.90;;;;;;4984393;28;20102;-67
2021/08/28 00:15:49;;;;;;;6.28;1.95;;;15.40;99.90;;;;;;4980340;28;20517;-66
2021/08/28 00:18:15;;;;;;;9.93;2.20;;;15.30;99.90;;;;;;5000164;28;20524;-67
2021/08/28 00:20:41;;;;;;;11.30;2.17;;;15.30;99.90;;;;;;4999470;28;20120;-66
2021/08/28 00:23:07;;;;;;;16.40;2.80;;;15.30;99.90;;;;;;4999437;28;20038;-66
2021/08/28 00:25:34;;;;;;;9.75;2.28;;;15.40;99.90;;;;;;5000815;28;20033;-66
2021/08/28 00:28:00;;;;;;;8.30;2.38;;;15.40;99.90;;;;;;4997031;28;20034;-67
2021/08/28 00:30:27;;;;;;;9.77;2.40;;;15.40;99.90;;;;;;5001838;28;20030;-67
2021/08/28 00:32:52;;;;;;;11.63;2.15;;;15.40;99.90;;;;;;4997963;28;20038;-66
2021/08/28 00:35:18;;;;;;;15.48;2.40;;;15.40;99.90;;;;;;5000732;28;20430;-66
2021/08/28 00:37:43;;;;;;;9.18;2.38;;;15.40;99.90;;;;;;4993549;28;20490;-66
2021/08/28 00:40:10;;;;;;;10.45;2.10;;;15.40;99.90;;;;;;5000834;28;20431;-66
2021/08/28 00:42:46;;;;;;;9.68;2.10;;;15.40;99.90;;;;;;4982014;28;20044;-66
2021/08/28 00:45:12;;;;;;;14.35;3.25;;;15.40;99.90;;;;;;4998532;28;20041;-66
2021/08/28 00:47:37;;;;;;;10.27;1.92;;;15.40;99.90;;;;;;4995388;28;20043;-66
2021/08/28 00:50:03;;;;;;;8.40;2.88;;;15.30;99.90;;;;;;4998063;28;20042;-64
2021/08/28 00:52:29;;;;;;;14.40;2.38;;;15.30;99.90;;;;;;4998106;28;20495;-66
2021/08/28 00:54:55;;;;;;;6.78;2.05;;;15.20;99.90;;;;;;5002643;28;20038;-66
2021/08/28 00:57:21;;;;;;;10.10;2.00;;;15.20;99.90;;;;;;4999284;28;20027;-67
2021/08/28 00:59:47;;;;;;;9.80;2.25;;;15.20;99.90;;;;;;5002630;28;20112;-67
2021/08/28 01:02:13;;;;;;;10.30;2.10;;;15.20;99.90;;;;;;5000422;28;20547;-67
2021/08/28 01:04:50;;;;;;;8.32;2.40;;;15.30;99.90;;;;;;5001504;28;20026;-66
2021/08/28 01:07:21;;;;;;;9.45;2.03;;;15.20;99.90;;;;;;4982132;28;20053;-67
2021/08/28 01:09:53;;;;;;;9.23;2.70;;;15.20;99.90;;;;;;5002883;28;20393;-67
2021/08/28 01:12:23;;;;;;;8.68;1.80;;;15.30;99.90;;;;;;4999908;28;20491;-67
2021/08/28 01:14:55;;;;;;;11.00;2.45;;;15.30;99.90;;;;;;5002844;28;20034;-67
2021/08/28 01:17:22;;;;;;;8.60;2.03;;;15.30;99.90;;;;;;4999394;28;20512;-67
2021/08/28 01:20:05;;;;;;;15.18;2.80;;;15.30;99.90;;;;;;5002719;28;20045;-65
2021/08/28 01:22:31;;;;;;;14.68;2.80;;;15.30;99.90;;;;;;4984443;28;20030;-67
2021/08/28 01:24:58;;;;;;;14.65;2.47;;;15.30;99.90;;;;;;4999565;28;20042;-67
2021/08/28 01:27:59;;;;;;;10.38;1.83;;;15.30;99.90;;;;;;5002474;28;20030;-67
2021/08/28 01:30:25;;;;;;;9.48;2.00;;;15.30;99.90;;;;;;4999257;28;20046;-67
2021/08/28 01:32:51;;;;;;;7.05;1.67;;;15.40;99.90;;;;;;4985373;28;20033;-67
2021/08/28 01:35:20;;;;;;;5.75;1.60;;;15.40;99.90;;;;;;4999138;28;20030;-67
2021/08/28 01:37:46;;;;;;;6.63;1.80;;;15.40;99.90;;;;;;5002614;28;20589;-67
2021/08/28 01:40:14;;;;;;;4.03;1.58;;;15.40;99.90;;;;;;5001165;28;20641;-66
2021/08/28 01:42:42;;;;;;;12.00;2.03;;;15.40;99.90;;;;;;5000678;28;20033;-67
2021/08/28 01:45:11;;;;;;;9.13;1.92;;;15.50;99.90;;;;;;4961236;28;1063767;-67
2021/08/28 01:47:39;;;;;;;8.27;1.67;;;15.50;99.90;;;;;;5001936;28;20037;-67
2021/08/28 01:50:06;;;;;;;5.95;1.58;;;15.40;99.90;;;;;;4984587;28;20042;-67
2021/08/28 01:52:32;;;;;;;5.93;1.88;;;15.50;99.90;;;;;;5017254;28;20042;-67
2021/08/28 01:54:58;;;;;;;7.03;1.80;;;15.50;99.90;;;;;;5000804;28;20482;-67
2021/08/28 01:57:24;;;;;;;11.73;2.28;;;15.50;99.90;;;;;;5003060;28;20484;-67
2021/08/28 01:59:50;;;;;;;9.02;2.13;;;15.60;99.90;;;;;;5000436;28;20034;-67
2021/08/28 02:02:16;;;;;;;13.05;1.95;;;15.60;99.90;;;;;;5004074;28;20031;-68
2021/08/28 02:04:42;;;;;;;11.70;2.03;;;15.60;99.90;;;;;;5002670;28;20688;-67
2021/08/28 02:07:19;;;;;;;6.32;1.50;;;15.60;99.90;;;;;;5001124;28;20046;-67
2021/08/28 02:10:06;;;;;;;9.50;1.48;;;15.60;99.90;;;;;;5003070;28;20030;-66
2021/08/28 02:12:41;;;;;;;14.05;2.45;;;15.70;99.90;;;;;;4983515;28;20526;-67
2021/08/28 02:15:14;;;;;;;8.70;2.22;;;15.60;99.90;;;;;;5001034;28;20046;-67
2021/08/28 02:17:47;;;;;;;8.45;1.38;;;15.60;99.90;;;;;;5001447;28;20142;-66
2021/08/28 02:20:15;;;;;;;9.32;2.00;;;15.60;99.90;;;;;;5000023;28;20437;-67
2021/08/28 02:22:45;;;;;;;7.60;1.60;;;15.60;99.90;;;;;;5002331;28;20049;-67
2021/08/28 02:25:30;;;;;;;10.97;1.80;;;15.60;99.90;;;;;;5000186;28;20117;-67
2021/08/28 02:28:16;;;;;;;8.07;1.52;;;15.60;99.90;;;;;;4999241;28;20149;-66
2021/08/28 02:30:44;;;;;;;10.88;2.08;;;15.60;99.90;;;;;;4999521;28;20031;-67
2021/08/28 02:33:11;;;;;;;9.63;1.60;;;15.70;99.90;;;;;;5002447;28;20045;-65
2021/08/28 02:35:37;;;;;;;6.18;2.00;;;15.70;99.90;;;;;;5000672;28;20054;-67
2021/08/28 02:38:04;;;;;;;7.70;1.42;;;15.70;99.90;;;;;;5001523;28;20034;-67
2021/08/28 02:40:33;;;;;;;7.18;1.20;;;15.80;99.90;;;;;;5001531;28;20033;-65
2021/08/28 02:42:59;;;;;;;10.15;1.73;;;15.80;99.90;;;;;;5000541;28;20066;-67
2021/08/28 02:45:26;;;;;;;9.18;1.67;;;15.90;99.90;;;;;;5002194;28;20034;-67
2021/08/28 02:47:53;;;;;;;5.95;1.23;;;15.90;99.90;;;;;;4999214;28;20038;-67
2021/08/28 02:50:20;;;;;;;9.90;1.42;;;15.90;99.90;;;;;;5002062;28;20046;-65
2021/08/28 02:52:48;;;;;;;10.27;1.80;;;15.90;99.90;;;;;;4998688;28;20035;-67
2021/08/28 02:55:15;;;;;;;5.78;1.27;;;15.90;99.90;;;;;;4985280;28;20042;-67
2021/08/28 02:57:45;;;;;;;5.70;1.20;;;15.80;99.90;;;;;;4998098;28;20113;-67
2021/08/28 03:00:11;;;;;;;4.45;1.00;;;15.70;99.90;;;;;;5014703;28;20646;-67
2021/08/28 03:02:38;;;;;;;3.85;1.02;;;15.70;99.90;;;;;;5001822;28;20084;-67
2021/08/28 03:05:06;;;;;;;4.70;1.17;;;15.70;99.90;;;;;;4984037;28;20228;-67
2021/08/28 03:07:34;;;;;;;7.18;1.45;;;15.80;99.90;;;;;;5001408;28;20070;-67
2021/08/28 03:10:02;;;;;;;10.73;1.60;;;15.70;99.90;;;;;;5001094;28;20042;-67
2021/08/28 03:12:28;;;;;;;5.60;1.30;;;15.70;99.90;;;;;;5000633;28;20038;-67
2021/08/28 03:14:53;;;;;;;9.45;1.33;;;15.70;99.90;;;;;;5000367;28;20036;-67
2021/08/28 03:17:20;;;;;;;9.55;1.80;;;15.70;99.90;;;;;;4998992;28;20031;-67
2021/08/28 03:19:48;;;;;;;6.35;1.58;;;15.60;99.90;;;;;;5001699;28;20026;-67
2021/08/28 03:22:20;;;;;;;6.13;0.98;;;15.70;99.90;;;;;;4998301;28;20027;-67
2021/08/28 03:24:48;;;;;;;11.15;1.00;;;15.60;99.90;;;;;;4997045;28;20027;-67
2021/08/28 03:27:15;;;;;;;14.23;2.65;;;15.70;99.90;;;;;;4998250;28;20041;-66
2021/08/28 03:29:41;;;;;;;6.07;1.55;;;15.70;99.90;;;;;;5001154;28;20029;-68
2021/08/28 03:32:07;;;;;;;5.07;1.25;;;15.70;99.90;;;;;;4981015;28;20042;-67
2021/08/28 03:34:33;;;;;;;5.35;1.20;;;15.60;99.90;;;;;;5000487;28;20038;-67
2021/08/28 03:37:00;;;;;;;7.20;1.27;;;15.70;99.90;;;;;;4998856;28;20467;-67
2021/08/28 03:39:26;;;;;;;7.15;1.15;;;15.70;99.90;;;;;;5000901;28;20028;-67
2021/08/28 03:41:51;;;;;;;6.28;1.20;;;15.70;99.90;;;;;;4998267;28;20031;-67
2021/08/28 03:44:18;;;;;;;9.55;1.90;;;15.70;99.90;;;;;;5001566;28;20464;-66
2021/08/28 03:46:46;;;;;;;14.57;1.92;;;15.70;99.90;;;;;;4998428;28;20041;-67
2021/08/28 03:49:12;;;;;;;11.43;1.75;;;15.70;99.90;;;;;;5016460;28;20026;-67
2021/08/28 03:51:37;;;;;;;7.40;1.50;;;15.80;99.90;;;;;;4981170;28;20546;-66
2021/08/28 03:54:03;;;;;;;7.97;1.67;;;15.80;99.90;;;;;;5000326;28;20741;-67
2021/08/28 03:56:29;;;;;;;5.15;1.38;;;15.70;99.90;;;;;;4999831;28;20113;-66
2021/08/28 03:58:54;;;;;;;6.18;1.83;;;15.70;99.90;;;;;;4981688;28;20084;-67
2021/08/28 04:01:21;;;;;;;6.40;1.45;;;15.70;99.90;;;;;;5000667;28;20030;-68
2021/08/28 04:03:47;;;;;;;5.93;1.45;;;15.80;99.90;;;;;;4998466;28;20113;-67
2021/08/28 04:06:12;;;;;;;6.70;1.58;;;15.70;99.90;;;;;;5000539;28;20125;-67
2021/08/28 04:08:38;;;;;;;7.78;2.20;;;15.80;99.90;;;;;;4994411;28;20058;-67
2021/08/28 04:11:04;;;;;;;11.65;1.50;;;15.80;99.90;;;;;;5000251;28;20026;-66
2021/08/28 04:13:29;;;;;;;13.50;1.42;;;15.90;99.90;;;;;;5014546;28;20394;-67
2021/08/28 04:15:55;;;;;;;4.38;1.00;;;15.80;99.90;;;;;;4998559;28;20045;-67
2021/08/28 04:18:21;;;;;;;8.40;1.25;;;15.80;99.90;;;;;;5000390;28;20026;-67
2021/08/28 04:20:47;;;;;;;5.47;1.42;;;15.80;99.90;;;;;;5001884;28;20034;-67
2021/08/28 04:23:12;;;;;;;4.47;1.30;;;15.80;99.90;;;;;;4997365;28;20038;-67
2021/08/28 04:25:38;;;;;;;4.93;1.88;;;15.90;99.90;;;;;;5000556;28;20030;-66
2021/08/28 04:28:04;;;;;;;3.05;1.10;;;15.90;99.90;;;;;;4979858;28;20049;-67
2021/08/28 04:30:30;;;;;;;4.80;1.52;;;15.90;99.90;;;;;;5000162;28;20038;-67
2021/08/28 04:32:56;;;;;;;6.35;1.30;;;15.90;99.90;;;;;;4999076;28;20038;-67
2021/08/28 04:35:22;;;;;;;6.13;1.10;;;15.80;99.90;;;;;;4997129;28;20038;-67
2021/08/28 04:37:47;;;;;;;5.93;1.08;;;15.80;99.90;;;;;;4980442;28;20089;-67
2021/08/28 04:40:13;;;;;;;17.85;2.78;;;15.80;99.90;;;;;;5000589;28;20037;-66
2021/08/28 04:42:39;;;;;;;8.98;1.50;;;15.90;99.90;;;;;;4997583;28;20522;-67
2021/08/28 04:45:06;;;;;;;6.82;1.23;;;15.80;99.90;;;;;;4982398;28;20494;-67
2021/08/28 04:47:31;;;;;;;3.92;1.40;;;15.90;99.90;;;;;;4998417;28;20026;-66
2021/08/28 04:49:57;;;;;;;6.38;1.38;;;15.90;99.90;;;;;;4999721;28;20038;-67
2021/08/28 04:52:23;;;;;;;9.10;1.48;;;15.90;99.90;;;;;;4981682;28;20030;-66
2021/08/28 04:54:48;;;;;;;4.88;1.27;;;15.90;99.90;;;;;;4998639;28;20038;-66
2021/08/28 04:57:14;;;;;;;5.47;1.40;;;15.90;99.90;;;;;;5000023;28;20034;-67
2021/08/28 04:59:40;;;;;;;6.55;1.30;;;15.90;99.90;;;;;;4997805;28;20031;-67
2021/08/28 05:02:06;;;;;;;7.50;1.50;;;15.90;99.90;;;;;;5000487;28;20433;-67
2021/08/28 05:04:31;;;;;;;5.70;1.30;;;15.90;99.90;;;;;;4998045;28;20034;-67
2021/08/28 05:06:58;;;;;;;5.90;1.27;;;15.90;99.90;;;;;;4999162;28;20081;-65
2021/08/28 05:09:23;;;;;;;14.02;1.98;;;16.00;99.90;;;;;;5000199;28;20057;-67
2021/08/28 05:11:49;;;;;;;8.25;1.50;;;16.00;99.90;;;;;;4981964;28;20414;-67
2021/08/28 05:14:15;;;;;;;9.20;1.60;;;16.00;99.90;;;;;;4997357;28;20037;-67
2021/08/28 05:16:40;;;;;;;2.95;1.23;;;16.00;99.90;;;;;;5000900;28;20026;-67
2021/08/28 05:19:06;;;;;;;4.35;1.50;;;16.00;99.90;;;;;;4996756;28;20146;-67
2021/08/28 05:21:31;;;;;;;9.77;1.90;;;16.00;99.90;;;;;;5000560;28;20030;-67
2021/08/28 05:23:58;;;;;;;11.50;1.80;;;16.00;99.90;;;;;;4983292;28;20129;-67
2021/08/28 05:26:23;;;;;;;7.32;1.33;;;16.00;99.90;;;;;;4998063;28;20083;-66
2021/08/28 05:28:49;;;;;;;6.35;1.77;;;16.10;99.90;;;;;;4997813;28;20395;-67
2021/08/28 05:31:15;;;;;;;12.98;1.98;;;16.10;99.90;;;;;;4999752;28;20483;-67
2021/08/28 05:33:40;;;;;;;6.38;1.80;;;16.20;99.90;;;;;;4996882;28;20299;-67
2021/08/28 05:36:06;;;;;;;4.97;1.63;;;16.30;99.90;;;;;;5000293;28;20113;-67
2021/08/28 05:38:32;;;;;;;10.70;2.28;;;16.40;99.90;;;;;;4997502;28;20038;-67
2021/08/28 05:40:58;;;;;;;5.50;1.25;;;16.40;99.90;;;;;;5001399;28;20093;-66
2021/08/28 05:43:24;;;;;;;6.57;1.70;;;16.50;99.90;;;;;;5000878;28;20428;-67
2021/08/28 05:45:50;;;;;;;5.65;1.55;;;16.50;99.90;;;;;;4999676;28;20646;-66
2021/08/28 05:48:15;;;;;;;5.97;1.50;;;16.50;99.90;;;;;;5000551;28;20030;-67
2021/08/28 05:50:41;;;;;;;6.38;2.45;;;16.50;99.90;;;;;;5003724;28;20038;-67
2021/08/28 05:53:07;;;;;;;7.63;1.27;;;16.60;99.90;;;;;;5000348;28;20426;-67
2021/08/28 05:55:32;;;;;;;5.15;1.38;;;16.60;99.90;;;;;;5003008;28;20038;-67
2021/08/28 05:57:58;;;;;;;5.47;1.35;;;16.70;99.90;;;;;;5000762;28;20046;-67
2021/08/28 06:00:23;;;;;;;4.53;1.15;;;16.80;99.90;;;;;;5001725;28;20490;-67
2021/08/28 06:02:49;;;;;;;5.88;1.23;;;17.00;99.90;;;;;;5003521;28;20478;-67
2021/08/28 06:05:14;;;;;;;8.02;1.92;;;17.00;99.90;;;;;;5002177;28;20041;-70
2021/08/28 06:07:40;;;;;;;7.50;1.50;;;17.10;99.90;;;;;;4999943;28;20454;-67
2021/08/28 06:10:07;;;;;;;3.63;1.30;;;17.20;99.90;;;;;;5002741;28;20038;-68
2021/08/28 06:12:34;;;;;;;3.30;1.20;;;17.30;99.90;;;;;;4999852;28;20096;-65
2021/08/28 06:15:00;;;;;;;9.63;1.10;;;17.30;99.90;;;;;;5002393;28;20046;-68
2021/08/28 06:17:26;;;;;;;5.68;1.42;;;17.40;99.90;;;;;;4999962;28;20034;-67
2021/08/28 06:19:52;;;;;;;3.22;1.10;;;17.30;99.90;;;;;;5001179;28;20395;-67
2021/08/28 06:22:17;;;;;;;5.40;1.40;;;17.30;99.90;;;;;;5001470;28;20053;-67
2021/08/28 06:24:43;;;;;;;4.43;1.40;;;17.50;99.90;;;;;;4999438;28;20026;-67
2021/08/28 06:27:09;;;;;;;7.63;1.25;;;17.50;99.90;;;;;;5001962;28;20523;-68
2021/08/28 06:29:35;;;;;;;5.45;1.10;;;17.70;99.90;;;;;;4981582;28;20567;-68
2021/08/28 06:32:01;;;;;;;4.97;1.60;;;17.80;99.90;;;;;;5002097;28;20797;-67
2021/08/28 06:34:27;;;;;;;6.10;1.23;;;18.10;99.90;;;;;;4999438;28;20053;-67
2021/08/28 06:36:52;;;;;;;4.72;1.02;;;18.30;99.90;;;;;;5000269;28;20036;-70
2021/08/28 06:39:18;;;;;;;5.20;1.27;;;18.60;99.90;;;;;;5000384;28;20030;-70
2021/08/28 06:41:43;;;;;;;5.13;1.15;;;19.00;99.90;;;;;;4999153;28;20454;-70
2021/08/28 06:44:09;;;;;;;7.03;1.13;;;19.10;99.90;;;;;;5002015;28;20140;-69
2021/08/28 06:46:35;;;;;;;8.13;1.38;;;19.00;99.90;;;;;;4985676;28;20030;-67
2021/08/28 06:49:00;;;;;;;2.95;0.88;;;18.80;99.90;;;;;;4999784;28;20379;-68
2021/08/28 06:51:26;;;;;;;8.68;1.10;;;18.90;99.90;;;;;;4999057;28;20022;-70
2021/08/28 06:53:51;;;;;;;5.45;1.38;;;19.10;99.90;;;;;;5000801;28;20037;-70
2021/08/28 06:56:17;;;;;;;5.13;1.20;;;19.60;99.90;;;;;;4999778;28;20042;-68
2021/08/28 06:58:43;;;;;;;3.25;0.85;;;20.50;99.90;;;;;;5000780;28;20514;-68
2021/08/28 07:01:09;;;;;;;5.95;1.13;;;21.10;99.90;;;;;;4999446;28;20033;-69
2021/08/28 07:03:35;;;;;;;7.78;1.30;;;21.90;99.90;;;;;;5000449;28;20089;-68
2021/08/28 07:06:00;;;;;;;3.20;1.00;;;22.10;99.90;;;;;;5001110;28;20030;-68
2021/08/28 07:08:26;;;;;;;4.97;1.20;;;21.70;99.90;;;;;;5000686;28;20446;-68
2021/08/28 07:10:52;;;;;;;4.82;1.73;;;21.30;99.90;;;;;;4997789;28;20041;-67
2021/08/28 07:13:18;;;;;;;6.35;1.65;;;20.70;99.90;;;;;;4999956;28;20114;-68
2021/08/28 07:15:43;;;;;;;3.92;1.42;;;20.60;99.90;;;;;;4999659;28;20042;-70
2021/08/28 07:18:10;;;;;;;7.07;1.88;;;20.60;99.90;;;;;;4993245;28;20041;-70
2021/08/28 07:20:36;;;;;;;6.07;1.50;;;20.60;99.90;;;;;;5000478;28;20115;-68
2021/08/28 07:23:02;;;;;;;4.70;1.00;;;20.70;99.90;;;;;;4996052;28;20414;-70
2021/08/28 07:25:27;;;;;;;4.60;1.25;;;20.70;99.90;;;;;;5000077;28;20285;-71
2021/08/28 07:27:53;;;;;;;4.65;1.15;;;20.60;99.90;;;;;;4996449;28;20046;-70
2021/08/28 07:30:19;;;;;;;8.25;1.10;;;20.50;99.90;;;;;;4998552;28;20088;-70
2021/08/28 07:32:45;;;;;;;7.28;1.10;;;20.30;99.90;;;;;;4998626;28;20721;-70
2021/08/28 07:35:10;;;;;;;4.60;1.20;;;20.20;99.90;;;;;;4982643;28;20055;-68
2021/08/28 07:37:36;;;;;;;2.45;1.10;;;20.00;99.90;;;;;;4983469;28;20045;-67
2021/08/28 07:40:04;;;;;;;6.05;1.13;;;19.70;99.90;;;;;;4993720;28;20033;-68
2021/08/28 07:42:30;;;;;;;4.20;1.20;;;19.60;99.90;;;;;;5002005;28;20022;-68
2021/08/28 07:44:56;;;;;;;4.18;1.05;;;19.50;99.90;;;;;;5004176;28;20832;-67
2021/08/28 07:47:21;;;;;;;4.55;1.48;;;19.50;99.90;;;;;;5004577;28;20056;-67
2021/08/28 07:49:47;;;;;;;8.20;1.60;;;19.50;99.90;;;;;;4998448;28;20033;-67
2021/08/28 07:52:14;;;;;;;6.32;1.88;;;19.50;99.90;;;;;;4979804;28;20042;-67
2021/08/28 07:54:40;;;;;;;3.85;1.33;;;19.40;99.90;;;;;;4999561;28;20741;-68
2021/08/28 07:57:05;;;;;;;5.60;1.02;;;19.20;99.90;;;;;;4979693;28;20113;-68
2021/08/28 07:59:31;;;;;;;3.75;1.38;;;19.00;99.90;;;;;;4982560;28;20030;-68
2021/08/28 08:01:56;;;;;;;2.20;1.00;;;18.80;99.90;;;;;;4996812;28;20057;-68
2021/08/28 08:04:22;;;;;;;5.60;1.38;;;18.60;99.90;;;;;;5001603;28;20026;-67
2021/08/28 08:06:48;;;;;;;4.72;1.30;;;18.70;99.90;;;;;;5000332;28;20053;-67
2021/08/28 08:09:15;;;;;;;5.65;1.10;;;18.70;99.90;;;;;;5000209;28;20034;-67
2021/08/28 08:11:41;;;;;;;8.85;2.28;;;18.80;99.90;;;;;;5000374;28;20044;-68
2021/08/28 08:14:06;;;;;;;4.38;1.20;;;18.80;99.90;;;;;;4979812;28;20038;-68
2021/08/28 08:16:32;;;;;;;6.47;0.90;;;18.90;99.90;;;;;;4979416;28;20053;-67
2021/08/28 08:18:58;;;;;;;6.07;1.55;;;19.00;99.90;;;;;;4982831;28;20034;-66
2021/08/28 08:21:24;;;;;;;5.07;1.25;;;19.00;99.90;;;;;;4979616;28;20034;-66
2021/08/28 08:23:50;;;;;;;12.88;2.17;;;19.00;99.90;;;;;;4982329;28;20042;-68
2021/08/28 08:26:16;;;;;;;7.97;1.60;;;19.00;99.90;;;;;;4997702;28;20136;-67
2021/08/28 08:28:41;;;;;;;7.45;1.48;;;19.10;99.90;;;;;;4998438;28;20042;-66
2021/08/28 08:31:07;;;;;;;4.03;1.20;;;19.10;99.90;;;;;;5001784;28;20034;-69
2021/08/28 08:33:32;;;;;;;8.00;1.30;;;19.00;99.90;;;;;;4999799;28;20030;-68
2021/08/28 08:35:58;;;;;;;4.72;1.10;;;19.00;99.90;;;;;;4995590;28;20042;-66
2021/08/28 08:38:23;;;;;;;7.05;2.40;;;19.10;99.90;;;;;;4996895;28;20110;-66
2021/08/28 08:40:50;;;;;;;6.25;1.38;;;19.40;99.90;;;;;;5006920;28;20044;-66
2021/08/28 08:43:16;;;;;;;3.35;0.95;;;19.80;99.90;;;;;;4996916;28;20049;-67
2021/08/28 08:45:44;;;;;;;6.72;1.50;;;20.10;99.90;;;;;;4997888;28;20053;-67
2021/08/28 08:48:10;;;;;;;3.67;1.30;;;20.10;99.90;;;;;;4998573;28;20038;-67
2021/08/28 08:50:37;;;;;;;6.20;1.50;;;19.90;99.90;;;;;;4998478;28;20134;-69
2021/08/28 08:53:05;;;;;;;4.65;1.25;;;19.80;99.90;;;;;;5000656;28;20545;-68
2021/08/28 08:55:32;;;;;;;6.75;1.35;;;19.90;99.90;;;;;;5002033;28;20100;-67
2021/08/28 08:57:59;;;;;;;3.88;1.05;;;20.00;99.90;;;;;;4997189;28;20098;-70
2021/08/28 09:00:25;;;;;;;7.32;1.73;;;20.20;99.90;;;;;;4996345;28;20057;-70
2021/08/28 09:02:50;;;;;;;4.45;1.45;;;20.40;99.90;;;;;;4999624;28;20053;-67
2021/08/28 09:05:16;;;;;;;4.85;1.35;;;20.40;99.90;;;;;;4997410;28;20034;-67
2021/08/28 09:07:42;;;;;;;3.72;1.52;;;20.50;99.90;;;;;;4998817;28;20033;-67
2021/08/28 09:10:09;;;;;;;4.38;1.00;;;20.40;99.90;;;;;;4998682;28;20095;-67
2021/08/28 09:12:36;;;;;;;6.32;1.40;;;20.10;99.90;;;;;;4997623;28;20042;-66
2021/08/28 09:15:04;;;;;;;4.35;1.35;;;19.80;99.90;;;;;;5003851;28;20433;-68
2021/08/28 09:17:30;;;;;;;10.55;2.20;;;19.60;99.90;;;;;;5000301;28;20038;-67
2021/08/28 09:19:55;;;;;;;8.57;1.85;;;19.40;99.90;;;;;;5004274;28;20038;-69
2021/08/28 09:22:27;;;;;;;4.60;1.35;;;19.30;99.90;;;;;;4986586;28;20049;-67
2021/08/28 09:24:56;;;;;;;4.18;1.95;;;19.20;99.90;;;;;;5000911;28;20037;-67
2021/08/28 09:27:32;;;;;;;3.97;1.20;;;19.30;99.90;;;;;;5003373;28;20026;-66
2021/08/28 09:29:58;;;;;;;5.38;1.90;;;19.50;99.90;;;;;;5001035;28;20049;-67
2021/08/28 09:32:23;;;;;;;5.35;1.58;;;19.70;99.90;;;;;;5004206;28;20517;-67
2021/08/28 09:34:49;;;;;;;6.47;1.40;;;19.90;99.90;;;;;;5004219;28;20046;-68
2021/08/28 09:37:15;;;;;;;5.28;1.48;;;20.10;99.90;;;;;;5001221;28;20486;-67
2021/08/28 09:39:46;;;;;;;2.70;1.13;;;20.40;99.90;;;;;;4986379;28;20529;-70
2021/08/28 09:42:18;;;;;;;4.82;1.33;;;20.60;99.90;;;;;;5002888;28;20030;-67
2021/08/28 09:44:45;;;;;;;4.78;1.20;;;20.70;99.90;;;;;;5000692;28;20060;-70
2021/08/28 09:47:12;;;;;;;8.18;1.50;;;20.80;99.90;;;;;;5001586;28;20065;-69
2021/08/28 09:49:40;;;;;;;3.85;1.38;;;20.70;99.90;;;;;;4983801;28;20061;-68
2021/08/28 09:52:09;;;;;;;4.97;1.30;;;20.50;99.90;;;;;;5006002;28;20041;-68
2021/08/28 09:54:38;;;;;;;4.30;1.00;;;20.30;99.90;;;;;;5003339;28;20494;-68
2021/08/28 09:57:04;;;;;;;4.47;1.17;;;20.10;99.90;;;;;;5003289;28;20312;-68
2021/08/28 09:59:29;;;;;;;2.90;1.38;;;19.90;99.90;;;;;;5005777;28;20700;-68
2021/08/28 10:01:55;;;;;;;3.25;1.30;;;19.90;99.90;;;;;;4986788;28;20041;-68
2021/08/28 10:04:21;;;;;;;4.05;1.35;;;20.00;99.90;;;;;;5005023;28;20096;-68
2021/08/28 10:06:48;;;;;;;8.55;1.33;;;20.20;99.90;;;;;;5005035;28;20126;-67
2021/08/28 10:09:15;;;;;;;2.55;0.98;;;20.40;99.90;;;;;;5002980;28;20041;-71
2021/08/28 10:11:46;;;;;;;4.15;1.17;;;20.60;99.90;;;;;;5004373;28;20032;-67
2021/08/28 10:14:17;;;;;;;4.53;1.20;;;20.70;99.90;;;;;;5001551;28;20064;-68
2021/08/28 10:16:45;;;;;;;7.90;0.98;;;20.80;99.90;;;;;;4999357;28;20046;-67
2021/08/28 10:19:15;;;;;;;3.35;1.13;;;20.90;99.90;;;;;;4981868;28;20042;-69
2021/08/28 10:21:46;;;;;;;4.30;0.80;;;21.00;99.90;;;;;;4984218;28;20022;-70
2021/08/28 10:24:15;;;;;;;;;;;21.20;99.90;;;;;;5005158;28;20042;-69
2021/08/28 10:26:43;;;;;;;1.90;0.53;;;21.30;99.90;;;;;;5004498;28;19964;-68
2021/08/28 10:29:13;;;;;;;3.40;1.10;;;21.30;99.90;;;;;;5004757;28;20037;-68
2021/08/28 10:31:39;;;;;;;3.05;1.20;;;21.40;99.90;;;;;;4988014;28;20109;-68
2021/08/28 10:34:05;;;;;;;2.33;1.13;;;21.60;99.90;;;;;;5000138;28;20054;-70
2021/08/28 10:36:30;;;;;;;2.22;1.05;;;21.60;99.90;;;;;;5002809;28;20673;-69
2021/08/28 10:38:57;;;;;;;3.83;1.10;;;21.50;99.90;;;;;;5004443;28;20108;-68
2021/08/28 10:41:23;;;;;;;5.32;1.65;;;21.60;99.90;;;;;;5003905;28;20121;-68
2021/08/28 10:43:50;;;;;;;6.38;1.10;;;21.80;99.90;;;;;;5004482;28;20034;-68
2021/08/28 10:46:21;;;;;;;3.17;1.15;;;21.70;99.90;;;;;;5002367;28;20035;-69
2021/08/28 10:48:55;;;;;;;4.57;1.02;;;21.70;99.90;;;;;;5002983;28;20034;-70
2021/08/28 10:51:23;;;;;;;2.00;1.13;;;21.70;99.90;;;;;;4998323;28;20486;-67
2021/08/28 10:53:53;;;;;;;3.03;0.93;;;21.60;99.90;;;;;;4999049;28;20030;-68
2021/08/28 10:56:19;;;;;;;2.83;1.40;;;21.60;99.90;;;;;;5004801;28;20096;-68
2021/08/28 10:58:45;;;;;;;2.85;1.02;;;21.50;99.90;;;;;;4983896;28;20038;-69
2021/08/28 11:01:10;;;;;;;3.38;1.20;;;21.60;99.90;;;;;;4987411;28;20045;-68
2021/08/28 11:03:36;;;;;;;1.63;0.73;;;21.60;99.90;;;;;;5005753;28;20026;-68
2021/08/28 11:06:17;;;;;;;3.35;0.77;;;21.60;99.90;;;;;;5002338;28;20100;-69
2021/08/28 11:08:56;;;;;;;4.40;1.00;;;21.60;99.90;;;;;;5004830;28;20037;-69
2021/08/28 11:11:40;;;;;;;4.13;0.88;;;21.50;99.90;;;;;;5004118;28;20183;-70
2021/08/28 11:14:10;;;;;;;5.10;0.95;;;21.30;99.90;;;;;;5001890;28;20045;-71
2021/08/28 11:16:42;;;;;;;2.47;1.00;;;21.30;99.90;;;;;;5002745;28;20029;-68
2021/08/28 11:19:08;;;;;;;3.38;0.82;;;21.30;99.90;;;;;;4987566;28;20092;-67
2021/08/28 11:21:46;;;;;;;2.90;0.80;;;21.40;99.90;;;;;;4983626;28;20041;-68
2021/08/28 11:24:20;;;;;;;3.50;0.98;;;21.70;99.90;;;;;;5003068;28;20046;-71
2021/08/28 11:26:50;;;;;;;4.97;1.45;;;21.50;99.90;;;;;;5000941;28;20049;-68
2021/08/28 11:29:16;;;;;;;;;;;21.60;99.90;;;;;;5001551;28;20548;-66
2021/08/28 11:32:04;;;;;;;2.60;1.10;;;21.50;99.90;;;;;;5002833;28;20424;-70
2021/08/28 11:34:29;;;;;;;2.67;0.65;;;21.40;99.90;;;;;;5005191;28;20034;-70
2021/08/28 11:37:27;;;;;;;3.17;0.98;;;21.20;99.90;;;;;;5000862;28;20048;-70
2021/08/28 11:39:55;;;;;;;5.10;1.25;;;21.30;99.90;;;;;;4998285;28;20145;-69
2021/08/28 11:42:21;;;;;;;4.75;1.05;;;21.30;99.90;;;;;;5002561;28;20048;-70
2021/08/28 11:44:48;;;;;;;3.78;0.85;;;21.20;99.90;;;;;;4985966;28;20498;-69
2021/08/28 11:47:13;;;;;;;4.97;1.30;;;21.20;99.90;;;;;;5003615;28;20057;-70
2021/08/28 11:49:39;;;;;;;5.65;1.02;;;21.30;99.90;;;;;;4996750;28;20038;-70
2021/08/28 11:52:06;;;;;;;2.20;0.90;;;21.30;99.90;;;;;;5002898;28;20522;-70
2021/08/28 11:54:32;;;;;;;3.40;1.10;;;21.20;99.90;;;;;;5000231;28;20038;-72
2021/08/28 11:56:58;;;;;;;3.42;1.13;;;21.10;99.90;;;;;;5000112;28;20026;-70
2021/08/28 11:59:37;;;;;;;3.20;0.80;;;21.10;99.90;;;;;;5004302;28;20026;-71
2021/08/28 12:02:04;;;;;;;1.93;0.93;;;21.30;99.90;;;;;;5007596;28;20112;-70
2021/08/28 12:04:33;;;;;;;3.30;0.88;;;21.40;99.90;;;;;;5000107;28;20104;-70
2021/08/28 12:07:00;;;;;;;6.30;1.58;;;21.40;99.90;;;;;;5002174;28;20473;-70
2021/08/28 12:09:26;;;;;;;5.72;1.10;;;21.20;99.90;;;;;;5007969;28;20056;-70
2021/08/28 12:11:53;;;;;;;5.18;1.05;;;21.10;99.90;;;;;;5001683;28;20025;-69
2021/08/28 12:14:20;;;;;;;6.78;1.25;;;20.90;99.90;;;;;;5003997;28;20529;-70
2021/08/28 12:16:46;;;;;;;3.45;1.00;;;20.80;99.90;;;;;;5001133;28;20131;-68
2021/08/28 12:19:19;;;;;;;2.38;0.85;;;20.70;99.90;;;;;;5000967;28;20042;-68
2021/08/28 12:21:53;;;;;;;1.67;0.55;;;20.60;99.90;;;;;;5000645;28;20084;-68
2021/08/28 12:24:22;;;;;;;2.50;0.95;;;20.60;99.90;;;;;;5002852;28;20030;-69
2021/08/28 12:26:49;;;;;;;2.85;1.42;;;20.70;99.90;;;;;;5002131;28;20030;-68
2021/08/28 12:29:44;;;;;;;7.80;1.23;;;20.70;99.90;;;;;;4983779;28;20077;-67
2021/08/28 12:32:12;;;;;;;2.40;0.77;;;20.70;99.90;;;;;;5002218;28;20037;-70
2021/08/28 12:34:40;;;;;;;7.05;1.67;;;20.80;99.90;;;;;;5002925;28;20069;-68
2021/08/28 12:37:14;;;;;;;3.33;1.20;;;20.90;99.90;;;;;;4997255;28;20038;-68
2021/08/28 12:39:41;;;;;;;4.47;0.70;;;20.90;99.90;;;;;;5001922;28;20026;-70
2021/08/28 12:42:11;;;;;;;3.63;0.90;;;20.90;99.90;;;;;;5000441;28;20041;-68
2021/08/28 12:44:37;;;;;;;2.78;1.10;;;20.90;99.90;;;;;;4999208;28;20109;-68
2021/08/28 12:47:03;;;;;;;3.38;1.20;;;20.80;99.90;;;;;;5003903;28;20034;-68